createdAt,value
2023-04-26T00:00:23.068Z,87.97
2023-04-26T00:01:22.949Z,87.80
2023-04-26T00:02:23.029Z,88.11
2023-04-26T00:03:23.058Z,88.21
2023-04-26T00:04:23.044Z,87.87
2023-04-26T00:05:22.875Z,88.53
2023-04-26T00:06:22.822Z,88.42
2023-04-26T00:07:22.724Z,88.73
2023-04-26T00:08:22.686Z,88.84
2023-04-26T00:09:22.643Z,88.53
2023-04-26T00:10:22.621Z,88.42
2023-04-26T00:11:22.583Z,88.53
2023-04-26T00:12:22.589Z,88.84
2023-04-26T00:13:22.497Z,88.94
2023-04-26T00:14:22.469Z,89.46
2023-04-26T00:15:22.430Z,89.25
2023-04-26T00:16:22.510Z,89.29
2023-04-26T00:17:22.367Z,89.71
2023-04-26T00:18:22.546Z,89.92
2023-04-26T00:19:22.276Z,90.02
2023-04-26T00:20:22.311Z,90.02
2023-04-26T00:21:22.215Z,90.23
2023-04-26T00:22:22.179Z,90.12
2023-04-26T00:23:22.279Z,89.61
2023-04-26T00:24:22.111Z,89.92
2023-04-26T00:25:22.062Z,90.12
2023-04-26T00:26:22.031Z,89.61
2023-04-26T00:27:21.985Z,90.23
2023-04-26T00:28:22.081Z,90.95
2023-04-26T00:29:21.917Z,90.95
2023-04-26T00:30:21.876Z,91.47
2023-04-26T00:31:21.894Z,91.27
2023-04-26T00:32:21.830Z,91.06
2023-04-26T00:33:21.764Z,91.41
2023-04-26T00:34:21.778Z,91.52
2023-04-26T00:35:21.693Z,91.31
2023-04-26T00:36:21.668Z,92.14
2023-04-26T00:37:21.630Z,92.35
2023-04-26T00:38:21.589Z,92.55
2023-04-26T00:39:21.602Z,92.45
2023-04-26T00:40:21.519Z,92.03
2023-04-26T00:41:21.467Z,92.45
2023-04-26T00:42:21.440Z,92.55
2023-04-26T00:43:21.403Z,92.35
2023-04-26T00:44:21.373Z,92.24
2023-04-26T00:45:21.380Z,92.35
2023-04-26T00:46:21.396Z,92.69
2023-04-26T00:47:21.257Z,92.35
2023-04-26T00:48:21.213Z,92.35
2023-04-26T00:49:21.205Z,92.03
2023-04-26T00:50:21.205Z,92.38
2023-04-26T00:51:21.105Z,92.38
2023-04-26T00:52:21.059Z,92.45
2023-04-26T00:53:21.032Z,92.35
2023-04-26T00:54:21.013Z,92.49
2023-04-26T00:55:20.978Z,92.38
2023-04-26T00:56:20.987Z,92.49
2023-04-26T00:57:20.873Z,92.66
2023-04-26T00:58:20.839Z,92.38
2023-04-26T00:59:20.839Z,92.38
2023-04-26T01:00:20.775Z,92.80
2023-04-26T01:01:20.827Z,92.59
2023-04-26T01:02:20.790Z,92.69
2023-04-26T01:03:20.796Z,92.69
2023-04-26T01:04:20.881Z,92.80
2023-04-26T01:05:20.580Z,92.59
2023-04-26T01:06:20.548Z,93.01
2023-04-26T01:07:20.583Z,92.80
2023-04-26T01:08:20.493Z,93.32
2023-04-26T01:09:20.439Z,93.01
2023-04-26T01:10:20.443Z,93.01
2023-04-26T01:11:20.357Z,93.47
2023-04-26T01:12:20.318Z,93.26
2023-04-26T01:13:20.347Z,93.88
2023-04-26T01:14:20.242Z,93.05
2023-04-26T01:15:20.217Z,94.09
2023-04-26T01:16:20.249Z,93.47
2023-04-26T01:17:20.183Z,93.57
2023-04-26T01:18:20.104Z,93.57
2023-04-26T01:19:20.543Z,93.57
2023-04-26T01:20:20.077Z,93.68
2023-04-26T01:21:19.983Z,93.88
2023-04-26T01:22:19.950Z,93.68
2023-04-26T01:23:19.990Z,94.20
2023-04-26T01:24:19.874Z,94.24
2023-04-26T01:25:19.845Z,94.34
2023-04-26T01:26:19.804Z,94.24
2023-04-26T01:27:19.790Z,94.55
2023-04-26T01:28:19.729Z,94.34
2023-04-26T01:29:19.749Z,94.34
2023-04-26T01:30:22.860Z,94.45
2023-04-26T01:31:19.638Z,94.45
2023-04-26T01:32:19.586Z,94.03
2023-04-26T01:33:19.535Z,94.03
2023-04-26T01:34:19.562Z,94.03
2023-04-26T01:35:19.477Z,94.45
2023-04-26T01:36:19.433Z,94.45
2023-04-26T01:37:19.404Z,94.86
2023-04-26T01:38:19.355Z,94.45
2023-04-26T01:39:19.406Z,94.65
2023-04-26T01:40:19.280Z,94.96
2023-04-26T01:41:19.234Z,95.21
2023-04-26T01:42:19.217Z,94.76
2023-04-26T01:43:19.194Z,95.32
2023-04-26T01:44:19.133Z,95.17
2023-04-26T01:45:19.177Z,95.01
2023-04-26T01:46:19.072Z,95.42
2023-04-26T01:47:19.041Z,95.11
2023-04-26T01:48:18.981Z,95.11
2023-04-26T01:49:18.938Z,95.42
2023-04-26T01:50:18.908Z,95.84
2023-04-26T01:51:18.928Z,95.94
2023-04-26T01:52:18.838Z,96.04
2023-04-26T01:53:18.789Z,95.21
2023-04-26T01:54:18.760Z,95.53
2023-04-26T01:55:18.721Z,95.63
2023-04-26T01:56:18.684Z,96.57
2023-04-26T01:57:18.710Z,96.25
2023-04-26T01:58:18.622Z,96.25
2023-04-26T01:59:18.571Z,96.57
2023-04-26T02:00:18.557Z,95.84
2023-04-26T02:01:18.549Z,96.57
2023-04-26T02:02:18.586Z,95.94
2023-04-26T02:03:18.489Z,95.99
2023-04-26T02:04:18.376Z,96.57
2023-04-26T02:05:18.439Z,96.31
2023-04-26T02:06:18.306Z,96.57
2023-04-26T02:07:18.265Z,96.78
2023-04-26T02:08:18.305Z,96.61
2023-04-26T02:09:18.230Z,96.78
2023-04-26T02:10:18.156Z,96.61
2023-04-26T02:11:18.183Z,96.57
2023-04-26T02:12:18.093Z,96.41
2023-04-26T02:13:18.068Z,96.41
2023-04-26T02:14:18.067Z,96.09
2023-04-26T02:15:17.977Z,96.51
2023-04-26T02:16:17.965Z,96.72
2023-04-26T02:17:17.903Z,96.92
2023-04-26T02:18:17.859Z,97.38
2023-04-26T02:19:17.873Z,96.72
2023-04-26T02:20:17.843Z,96.72
2023-04-26T02:21:17.747Z,97.03
2023-04-26T02:22:17.707Z,97.03
2023-04-26T02:23:17.680Z,97.55
2023-04-26T02:24:17.705Z,97.96
2023-04-26T02:25:17.606Z,97.34
2023-04-26T02:26:17.563Z,96.92
2023-04-26T02:27:17.650Z,96.61
2023-04-26T02:28:17.505Z,96.92
2023-04-26T02:29:17.453Z,97.03
2023-04-26T02:30:17.463Z,97.17
2023-04-26T02:31:17.434Z,97.13
2023-04-26T02:32:17.346Z,97.55
2023-04-26T02:33:17.301Z,97.55
2023-04-26T02:34:17.268Z,97.59
2023-04-26T02:35:17.283Z,98.01
2023-04-26T02:36:17.195Z,97.70
2023-04-26T02:37:17.157Z,97.17
2023-04-26T02:38:17.114Z,97.80
2023-04-26T02:39:17.092Z,98.22
2023-04-26T02:40:17.042Z,97.91
2023-04-26T02:41:17.072Z,97.70
2023-04-26T02:42:16.966Z,98.01
2023-04-26T02:43:16.933Z,98.53
2023-04-26T02:44:16.934Z,98.22
2023-04-26T02:45:16.869Z,98.53
2023-04-26T02:46:17.442Z,98.43
2023-04-26T02:47:16.851Z,98.22
2023-04-26T02:48:16.803Z,98.53
2023-04-26T02:49:16.710Z,98.32
2023-04-26T02:50:16.672Z,98.22
2023-04-26T02:51:16.693Z,98.53
2023-04-26T02:52:16.584Z,99.05
2023-04-26T02:53:16.602Z,98.84
2023-04-26T02:54:16.518Z,98.80
2023-04-26T02:55:16.485Z,98.74
2023-04-26T02:56:16.433Z,98.84
2023-04-26T02:57:16.458Z,98.32
2023-04-26T02:58:16.367Z,99.32
2023-04-26T02:59:16.393Z,98.80
2023-04-26T03:00:16.304Z,98.90
2023-04-26T03:01:16.348Z,98.22
2023-04-26T03:02:16.327Z,98.53
2023-04-26T03:03:16.293Z,98.84
2023-04-26T03:04:16.419Z,98.84
2023-04-26T03:05:16.108Z,98.80
2023-04-26T03:06:16.057Z,98.59
2023-04-26T03:07:16.023Z,98.53
2023-04-26T03:08:15.985Z,99.36
2023-04-26T03:09:15.999Z,98.94
2023-04-26T03:10:15.912Z,98.74
2023-04-26T03:11:16.492Z,99.15
2023-04-26T03:12:15.831Z,98.94
2023-04-26T03:13:15.806Z,98.94
2023-04-26T03:14:15.764Z,98.74
2023-04-26T03:15:15.812Z,99.36
2023-04-26T03:16:15.793Z,99.26
2023-04-26T03:17:15.646Z,99.57
2023-04-26T03:18:15.617Z,99.46
2023-04-26T03:19:15.569Z,99.77
2023-04-26T03:20:15.533Z,99.67
2023-04-26T03:21:15.586Z,99.67
2023-04-26T03:22:15.471Z,99.46
2023-04-26T03:23:15.423Z,98.90
2023-04-26T03:24:15.436Z,98.94
2023-04-26T03:25:15.351Z,98.90
2023-04-26T03:26:15.314Z,98.94
2023-04-26T03:27:15.340Z,98.84
2023-04-26T03:28:15.254Z,98.84
2023-04-26T03:29:15.218Z,98.84
2023-04-26T03:30:15.160Z,98.84
2023-04-26T03:31:15.120Z,99.05
2023-04-26T03:32:15.176Z,98.80
2023-04-26T03:33:15.150Z,99.05
2023-04-26T03:34:15.058Z,99.15
2023-04-26T03:35:14.985Z,98.84
2023-04-26T03:36:14.941Z,98.74
2023-04-26T03:37:14.904Z,98.74
2023-04-26T03:38:14.868Z,98.94
2023-04-26T03:39:14.903Z,99.57
2023-04-26T03:40:14.784Z,99.57
2023-04-26T03:41:14.744Z,99.26
2023-04-26T03:42:14.710Z,99.46
2023-04-26T03:43:14.693Z,99.72
2023-04-26T03:44:14.704Z,99.67
2023-04-26T03:45:14.659Z,99.67
2023-04-26T03:46:14.741Z,99.36
2023-04-26T03:47:14.562Z,99.26
2023-04-26T03:48:14.514Z,99.57
2023-04-26T03:49:14.458Z,99.15
2023-04-26T03:50:14.422Z,99.36
2023-04-26T03:51:14.424Z,99.26
2023-04-26T03:52:14.411Z,99.46
2023-04-26T03:53:14.300Z,99.26
2023-04-26T03:54:14.264Z,98.84
2023-04-26T03:55:14.224Z,98.59
2023-04-26T03:56:14.188Z,99.11
2023-04-26T03:57:14.223Z,98.74
2023-04-26T03:58:14.122Z,98.69
2023-04-26T03:59:14.071Z,98.32
2023-04-26T04:00:14.054Z,98.43
2023-04-26T04:01:13.995Z,98.32
2023-04-26T04:02:14.047Z,98.53
2023-04-26T04:03:14.161Z,98.27
2023-04-26T04:04:14.216Z,98.59
2023-04-26T04:05:14.062Z,98.27
2023-04-26T04:06:13.870Z,98.48
2023-04-26T04:07:13.780Z,98.59
2023-04-26T04:08:13.739Z,98.38
2023-04-26T04:09:13.704Z,97.75
2023-04-26T04:10:13.675Z,97.75
2023-04-26T04:11:13.697Z,97.65
2023-04-26T04:12:13.591Z,97.14
2023-04-26T04:13:13.547Z,96.94
2023-04-26T04:14:13.599Z,96.27
2023-04-26T04:15:13.467Z,96.12
2023-04-26T04:16:13.456Z,94.78
2023-04-26T04:17:13.453Z,94.06
2023-04-26T04:18:13.474Z,93.44
2023-04-26T04:19:13.374Z,92.47
2023-04-26T04:20:13.284Z,92.11
2023-04-26T04:21:13.288Z,91.39
2023-04-26T04:22:13.267Z,90.97
2023-04-26T04:23:13.177Z,90.14
2023-04-26T04:24:13.139Z,89.94
2023-04-26T04:25:13.106Z,90.00
2023-04-26T04:26:13.066Z,90.00
2023-04-26T04:27:13.025Z,90.10
2023-04-26T04:28:13.048Z,89.69
2023-04-26T04:29:13.004Z,89.48
2023-04-26T04:30:12.919Z,89.38
2023-04-26T04:31:13.086Z,89.48
2023-04-26T04:32:12.837Z,89.28
2023-04-26T04:33:12.805Z,89.48
2023-04-26T04:34:12.832Z,88.92
2023-04-26T04:35:12.724Z,88.16
2023-04-26T04:36:12.698Z,87.81
2023-04-26T04:37:12.658Z,87.29
2023-04-26T04:38:12.621Z,87.00
2023-04-26T04:39:12.657Z,85.83
2023-04-26T04:40:12.571Z,85.52
2023-04-26T04:41:12.531Z,84.89
2023-04-26T04:42:12.469Z,85.04
2023-04-26T04:43:12.512Z,85.24
2023-04-26T04:44:12.471Z,85.24
2023-04-26T04:45:12.375Z,85.45
2023-04-26T04:46:12.941Z,85.31
2023-04-26T04:47:12.320Z,84.75
2023-04-26T04:48:12.304Z,83.17
2023-04-26T04:49:12.229Z,83.33
2023-04-26T04:50:12.264Z,82.30
2023-04-26T04:51:12.165Z,81.85
2023-04-26T04:52:12.127Z,81.54
2023-04-26T04:53:12.101Z,81.65
2023-04-26T04:54:12.053Z,81.54
2023-04-26T04:55:12.019Z,81.58
2023-04-26T04:56:12.029Z,81.58
2023-04-26T04:57:11.941Z,82.17
2023-04-26T04:58:11.915Z,83.90
2023-04-26T04:59:11.881Z,85.39
2023-04-26T05:00:11.832Z,86.67
2023-04-26T05:01:11.864Z,86.91
2023-04-26T05:02:11.797Z,87.85
2023-04-26T05:03:11.943Z,88.20
2023-04-26T05:04:11.870Z,88.82
2023-04-26T05:05:11.751Z,89.48
2023-04-26T05:06:11.620Z,89.38
2023-04-26T05:07:11.643Z,90.06
2023-04-26T05:08:11.558Z,90.00
2023-04-26T05:09:11.507Z,90.10
2023-04-26T05:10:11.483Z,90.20
2023-04-26T05:11:11.445Z,90.62
2023-04-26T05:12:11.474Z,90.83
2023-04-26T05:13:11.368Z,91.03
2023-04-26T05:14:11.327Z,91.45
2023-04-26T05:15:11.302Z,91.14
2023-04-26T05:16:11.311Z,90.93
2023-04-26T05:17:11.226Z,90.83
2023-04-26T05:18:11.338Z,90.62
2023-04-26T05:19:11.160Z,90.78
2023-04-26T05:20:11.179Z,90.78
2023-04-26T05:21:11.116Z,90.68
2023-04-26T05:22:11.051Z,90.89
2023-04-26T05:23:11.064Z,90.78
2023-04-26T05:24:11.038Z,90.37
2023-04-26T05:25:10.959Z,90.53
2023-04-26T05:26:10.911Z,90.23
2023-04-26T05:27:10.872Z,89.92
2023-04-26T05:28:10.860Z,89.75
2023-04-26T05:29:10.848Z,89.40
2023-04-26T05:30:10.760Z,89.50
2023-04-26T05:31:11.532Z,89.81
2023-04-26T05:32:10.877Z,89.92
2023-04-26T05:33:10.689Z,90.02
2023-04-26T05:34:10.765Z,89.54
2023-04-26T05:35:10.594Z,90.33
2023-04-26T05:36:10.559Z,89.34
2023-04-26T05:37:10.500Z,89.19
2023-04-26T05:38:10.546Z,89.75
2023-04-26T05:39:10.443Z,89.34
2023-04-26T05:40:10.487Z,90.12
2023-04-26T05:41:10.362Z,90.47
2023-04-26T05:42:10.331Z,89.50
2023-04-26T05:43:10.292Z,89.46
2023-04-26T05:44:10.274Z,89.09
2023-04-26T05:45:10.228Z,89.09
2023-04-26T05:46:10.281Z,88.78
2023-04-26T05:47:10.182Z,88.88
2023-04-26T05:48:10.127Z,88.94
2023-04-26T05:49:10.072Z,89.56
2023-04-26T05:50:10.093Z,88.94
2023-04-26T05:51:10.091Z,88.64
2023-04-26T05:52:09.969Z,88.53
2023-04-26T05:53:09.932Z,88.53
2023-04-26T05:54:09.895Z,88.01
2023-04-26T05:55:09.866Z,87.91
2023-04-26T05:56:09.888Z,88.49
2023-04-26T05:57:09.826Z,88.12
2023-04-26T05:58:09.746Z,88.28
2023-04-26T05:59:09.710Z,88.49
2023-04-26T06:00:09.673Z,88.28
2023-04-26T06:01:09.640Z,87.46
2023-04-26T06:02:09.695Z,88.28
2023-04-26T06:03:09.774Z,88.49
2023-04-26T06:04:09.952Z,88.49
2023-04-26T06:05:09.639Z,88.49
2023-04-26T06:06:10.406Z,88.07
2023-04-26T06:07:11.077Z,87.97
2023-04-26T06:08:09.417Z,88.55
2023-04-26T06:09:09.354Z,88.14
2023-04-26T06:10:09.330Z,87.62
2023-04-26T06:11:09.281Z,87.31
2023-04-26T06:12:09.289Z,87.62
2023-04-26T06:13:09.204Z,86.69
2023-04-26T06:14:19.750Z,86.28
2023-04-26T06:15:09.134Z,85.83
2023-04-26T06:16:09.098Z,85.41
2023-04-26T06:17:09.094Z,85.55
2023-04-26T06:18:09.147Z,85.31
2023-04-26T06:19:08.988Z,85.21
2023-04-26T06:20:09.911Z,85.21
2023-04-26T06:21:08.911Z,85.10
2023-04-26T06:22:08.903Z,84.69
2023-04-26T06:23:08.852Z,84.79
2023-04-26T06:24:08.893Z,85.52
2023-04-26T06:25:08.780Z,85.10
2023-04-26T06:26:08.744Z,85.52
2023-04-26T06:27:09.509Z,84.48
2023-04-26T06:28:08.664Z,84.86
2023-04-26T06:29:08.631Z,85.47
2023-04-26T06:30:08.680Z,85.27
2023-04-26T06:31:08.607Z,85.27
2023-04-26T06:32:08.533Z,83.72
2023-04-26T06:33:08.551Z,85.02
2023-04-26T06:34:08.673Z,84.81
2023-04-26T06:35:08.458Z,84.81
2023-04-26T06:36:08.450Z,84.96
2023-04-26T06:37:08.343Z,84.96
2023-04-26T06:38:08.315Z,84.92
2023-04-26T06:39:08.272Z,83.58
2023-04-26T06:40:08.300Z,83.37
2023-04-26T06:41:08.213Z,83.68
2023-04-26T06:42:08.233Z,83.37
2023-04-26T06:43:08.138Z,83.37
2023-04-26T06:44:08.116Z,82.86
2023-04-26T06:45:08.076Z,83.06
2023-04-26T06:46:08.116Z,83.33
2023-04-26T06:47:08.028Z,82.37
2023-04-26T06:48:08.075Z,82.12
2023-04-26T06:49:07.929Z,80.65
2023-04-26T06:50:07.908Z,80.23
2023-04-26T06:51:07.909Z,80.19
2023-04-26T06:52:09.444Z,78.86
2023-04-26T06:53:07.796Z,78.55
2023-04-26T06:54:07.806Z,78.41
2023-04-26T06:55:07.714Z,78.34
2023-04-26T06:56:07.682Z,79.37
2023-04-26T06:57:07.673Z,79.06
2023-04-26T06:58:07.607Z,78.96
2023-04-26T06:59:07.624Z,78.10
2023-04-26T07:00:07.617Z,77.51
2023-04-26T07:01:07.520Z,77.34
2023-04-26T07:02:07.527Z,76.59
2023-04-26T07:03:07.571Z,76.42
2023-04-26T07:04:07.858Z,76.52
2023-04-26T07:05:07.631Z,76.52
2023-04-26T07:06:07.917Z,76.38
2023-04-26T07:07:07.399Z,76.69
2023-04-26T07:08:07.273Z,76.42
2023-04-26T07:09:07.245Z,76.62
2023-04-26T07:10:07.204Z,76.97
2023-04-26T07:11:07.215Z,77.07
2023-04-26T07:12:07.135Z,77.58
2023-04-26T07:13:09.392Z,76.97
2023-04-26T07:14:07.064Z,76.97
2023-04-26T07:15:07.019Z,76.73
2023-04-26T07:16:07.085Z,76.73
2023-04-26T07:17:06.953Z,77.31
2023-04-26T07:18:07.580Z,76.25
2023-04-26T07:19:06.898Z,75.32
2023-04-26T07:20:06.849Z,74.87
2023-04-26T07:21:06.895Z,74.43
2023-04-26T07:22:06.780Z,73.16
2023-04-26T07:23:06.847Z,73.16
2023-04-26T07:24:06.715Z,73.10
2023-04-26T07:25:06.750Z,73.27
2023-04-26T07:26:06.641Z,73.06
2023-04-26T07:27:06.804Z,73.27
2023-04-26T07:28:06.585Z,72.92
2023-04-26T07:29:06.545Z,71.76
2023-04-26T07:30:06.522Z,71.01
2023-04-26T07:31:08.794Z,70.47
2023-04-26T07:32:06.500Z,70.16
2023-04-26T07:33:06.590Z,69.54
2023-04-26T07:34:06.385Z,69.24
2023-04-26T07:35:06.352Z,68.93
2023-04-26T07:36:06.334Z,69.34
2023-04-26T07:37:06.365Z,69.85
2023-04-26T07:38:06.266Z,70.09
2023-04-26T07:39:06.368Z,70.19
2023-04-26T07:40:06.219Z,70.19
2023-04-26T07:41:06.157Z,70.19
2023-04-26T07:42:06.132Z,69.24
2023-04-26T07:43:06.090Z,69.95
2023-04-26T07:44:06.056Z,69.75
2023-04-26T07:45:06.084Z,69.37
2023-04-26T07:46:06.045Z,69.47
2023-04-26T07:47:05.967Z,69.37
2023-04-26T07:48:05.986Z,69.65
2023-04-26T07:49:05.880Z,69.81
2023-04-26T07:50:05.872Z,70.43
2023-04-26T07:51:05.883Z,70.02
2023-04-26T07:52:05.837Z,70.60
2023-04-26T07:53:05.762Z,70.29
2023-04-26T07:54:05.791Z,70.64
2023-04-26T07:55:05.692Z,71.04
2023-04-26T07:56:05.656Z,70.57
2023-04-26T07:57:05.632Z,69.24
2023-04-26T07:58:05.659Z,68.79
2023-04-26T07:59:05.572Z,67.90
2023-04-26T08:00:05.583Z,68.38
2023-04-26T08:01:05.503Z,68.38
2023-04-26T08:02:05.482Z,68.90
2023-04-26T08:03:05.554Z,68.18
2023-04-26T08:04:05.744Z,68.55
2023-04-26T08:05:05.693Z,68.15
2023-04-26T08:06:05.724Z,68.12
2023-04-26T08:07:05.308Z,65.77
2023-04-26T08:08:05.267Z,65.77
2023-04-26T08:09:05.262Z,65.87
2023-04-26T08:10:05.214Z,67.02
2023-04-26T08:11:05.286Z,67.54
2023-04-26T08:12:05.221Z,67.23
2023-04-26T08:13:05.107Z,66.75
2023-04-26T08:14:05.091Z,67.05
2023-04-26T08:15:05.091Z,67.05
2023-04-26T08:16:05.018Z,67.77
2023-04-26T08:17:05.044Z,67.90
2023-04-26T08:18:05.031Z,67.60
2023-04-26T08:19:04.916Z,68.49
2023-04-26T08:20:04.961Z,68.55
2023-04-26T08:21:04.863Z,67.36
2023-04-26T08:22:04.826Z,67.05
2023-04-26T08:23:05.547Z,67.36
2023-04-26T08:24:04.758Z,67.36
2023-04-26T08:25:04.725Z,67.16
2023-04-26T08:26:04.749Z,66.72
2023-04-26T08:27:04.665Z,65.80
2023-04-26T08:28:04.634Z,66.51
2023-04-26T08:29:04.599Z,66.28
2023-04-26T08:30:04.573Z,65.43
2023-04-26T08:31:04.656Z,65.69
2023-04-26T08:32:04.502Z,66.31
2023-04-26T08:33:04.556Z,66.20
2023-04-26T08:34:04.448Z,66.00
2023-04-26T08:35:04.440Z,66.07
2023-04-26T08:36:04.380Z,65.15
2023-04-26T08:37:04.413Z,65.36
2023-04-26T08:38:04.319Z,64.92
2023-04-26T08:39:04.270Z,63.89
2023-04-26T08:40:04.248Z,64.07
2023-04-26T08:41:04.205Z,63.66
2023-04-26T08:42:04.218Z,64.00
2023-04-26T08:43:04.281Z,64.30
2023-04-26T08:44:04.120Z,63.13
2023-04-26T08:45:04.124Z,64.77
2023-04-26T08:46:04.082Z,66.20
2023-04-26T08:47:04.039Z,65.83
2023-04-26T08:48:04.803Z,66.03
2023-04-26T08:49:04.011Z,65.93
2023-04-26T08:50:03.919Z,66.67
2023-04-26T08:51:03.884Z,67.22
2023-04-26T08:52:03.860Z,66.50
2023-04-26T08:53:03.818Z,66.91
2023-04-26T08:54:04.830Z,67.52
2023-04-26T08:55:03.819Z,68.14
2023-04-26T08:56:03.734Z,68.68
2023-04-26T08:57:03.703Z,68.41
2023-04-26T08:58:03.667Z,69.23
2023-04-26T08:59:03.793Z,69.33
2023-04-26T09:00:03.611Z,69.02
2023-04-26T09:01:03.630Z,67.83
2023-04-26T09:02:03.571Z,68.73
2023-04-26T09:03:03.722Z,68.18
2023-04-26T09:04:03.580Z,66.64
2023-04-26T09:05:03.606Z,66.13
2023-04-26T09:06:04.464Z,67.19
2023-04-26T09:07:03.457Z,67.40
2023-04-26T09:08:03.349Z,66.91
2023-04-26T09:09:03.320Z,67.40
2023-04-26T09:10:03.273Z,67.54
2023-04-26T09:11:03.264Z,65.69
2023-04-26T09:12:03.226Z,64.95
2023-04-26T09:13:03.226Z,65.56
2023-04-26T09:14:03.142Z,64.10
2023-04-26T09:15:03.161Z,61.77
2023-04-26T09:16:05.016Z,61.77
2023-04-26T09:17:03.044Z,62.39
2023-04-26T09:18:03.056Z,62.49
2023-04-26T09:19:03.056Z,64.00
2023-04-26T09:20:03.679Z,64.03
2023-04-26T09:21:02.927Z,64.87
2023-04-26T09:22:02.885Z,65.52
2023-04-26T09:23:02.898Z,65.62
2023-04-26T09:24:02.823Z,65.72
2023-04-26T09:25:02.828Z,66.34
2023-04-26T09:26:02.754Z,65.11
2023-04-26T09:27:02.728Z,64.12
2023-04-26T09:28:02.702Z,64.90
2023-04-26T09:29:02.706Z,65.34
2023-04-26T09:30:02.623Z,65.55
2023-04-26T09:31:02.697Z,64.12
2023-04-26T09:32:02.628Z,63.98
2023-04-26T09:33:02.591Z,64.18
2023-04-26T09:34:02.482Z,63.78
2023-04-26T09:35:02.450Z,63.44
2023-04-26T09:36:02.431Z,62.62
2023-04-26T09:37:02.450Z,61.88
2023-04-26T09:38:06.509Z,61.98
2023-04-26T09:39:02.337Z,60.75
2023-04-26T09:40:02.303Z,60.85
2023-04-26T09:41:02.262Z,61.44
2023-04-26T09:42:02.222Z,61.13
2023-04-26T09:43:02.273Z,60.83
2023-04-26T09:44:02.162Z,60.11
2023-04-26T09:45:02.146Z,60.31
2023-04-26T09:46:02.104Z,59.39
2023-04-26T09:47:02.274Z,59.39
2023-04-26T09:48:02.046Z,59.60
2023-04-26T09:49:02.070Z,60.31
2023-04-26T09:50:01.997Z,61.21
2023-04-26T09:51:01.929Z,60.87
2023-04-26T09:52:01.930Z,59.62
2023-04-26T09:53:01.870Z,58.82
2023-04-26T09:54:01.850Z,54.61
2023-04-26T09:55:01.881Z,54.79
2023-04-26T09:56:01.780Z,54.61
2023-04-26T09:57:01.777Z,55.13
2023-04-26T09:58:01.706Z,55.81
2023-04-26T09:59:01.676Z,54.49
2023-04-26T10:00:01.650Z,54.59
2023-04-26T10:01:01.706Z,55.33
2023-04-26T10:02:01.582Z,54.51
2023-04-26T10:03:01.679Z,55.99
2023-04-26T10:04:01.808Z,56.53
2023-04-26T10:05:01.577Z,56.04
2023-04-26T10:06:01.456Z,55.82
2023-04-26T10:07:01.478Z,55.28
2023-04-26T10:08:01.385Z,54.13
2023-04-26T10:09:01.374Z,54.03
2023-04-26T10:10:01.353Z,54.33
2023-04-26T10:11:01.305Z,54.94
2023-04-26T10:12:01.273Z,54.74
2023-04-26T10:13:01.286Z,54.36
2023-04-26T10:14:01.208Z,55.41
2023-04-26T10:15:01.296Z,56.17
2023-04-26T10:16:01.329Z,56.51
2023-04-26T10:17:01.136Z,57.12
2023-04-26T10:18:01.182Z,58.48
2023-04-26T10:19:01.094Z,56.74
2023-04-26T10:20:01.047Z,56.40
2023-04-26T10:21:01.046Z,56.61
2023-04-26T10:22:01.051Z,56.48
2023-04-26T10:23:00.928Z,56.68
2023-04-26T10:24:00.902Z,56.58
2023-04-26T10:25:00.863Z,57.22
2023-04-26T10:26:00.918Z,57.29
2023-04-26T10:27:00.837Z,56.07
2023-04-26T10:28:00.768Z,54.92
2023-04-26T10:29:02.539Z,54.79
2023-04-26T10:30:00.703Z,53.67
2023-04-26T10:31:00.755Z,53.85
2023-04-26T10:32:00.675Z,53.77
2023-04-26T10:33:00.669Z,52.65
2023-04-26T10:34:00.578Z,53.59
2023-04-26T10:35:00.570Z,53.49
2023-04-26T10:36:00.618Z,53.62
2023-04-26T10:37:00.485Z,53.92
2023-04-26T10:38:00.539Z,54.16
2023-04-26T10:39:00.431Z,54.49
2023-04-26T10:40:00.396Z,54.80
2023-04-26T10:41:00.360Z,55.62
2023-04-26T10:42:00.386Z,56.02
2023-04-26T10:43:00.293Z,55.82
2023-04-26T10:44:00.266Z,56.15
2023-04-26T10:45:00.304Z,56.87
2023-04-26T10:46:00.241Z,57.10
2023-04-26T10:47:00.242Z,56.99
2023-04-26T10:48:00.191Z,56.99
2023-04-26T10:49:00.138Z,57.40
2023-04-26T10:50:00.073Z,57.92
2023-04-26T10:51:00.036Z,58.73
2023-04-26T10:52:00.060Z,58.63
2023-04-26T10:53:01.013Z,58.50
2023-04-26T10:53:59.950Z,58.37
2023-04-26T10:54:59.963Z,57.97
2023-04-26T10:55:59.872Z,58.27
2023-04-26T10:56:59.854Z,57.43
2023-04-26T10:57:59.868Z,56.99
2023-04-26T10:58:59.788Z,56.89
2023-04-26T10:59:59.753Z,56.96
2023-04-26T11:00:59.732Z,57.42
2023-04-26T11:01:59.705Z,55.91
2023-04-26T11:03:02.549Z,55.58
2023-04-26T11:03:59.926Z,54.28
2023-04-26T11:04:59.643Z,54.97
2023-04-26T11:05:59.557Z,55.48
2023-04-26T11:06:59.638Z,55.89
2023-04-26T11:07:59.489Z,56.43
2023-04-26T11:08:59.463Z,57.04
2023-04-26T11:09:59.492Z,57.86
2023-04-26T11:10:59.405Z,58.16
2023-04-26T11:11:59.376Z,58.50
2023-04-26T11:12:59.338Z,59.59
2023-04-26T11:13:59.368Z,58.19
2023-04-26T11:14:59.273Z,58.32
2023-04-26T11:15:59.293Z,59.14
2023-04-26T11:16:59.222Z,58.83
2023-04-26T11:17:59.186Z,58.60
2023-04-26T11:18:59.208Z,58.73
2023-04-26T11:19:59.106Z,60.05
2023-04-26T11:20:59.084Z,59.41
2023-04-26T11:21:59.047Z,58.50
2023-04-26T11:22:59.080Z,58.19
2023-04-26T11:23:59.068Z,57.07
2023-04-26T11:24:58.959Z,57.48
2023-04-26T11:25:58.940Z,57.20
2023-04-26T11:26:58.906Z,58.32
2023-04-26T11:27:58.886Z,58.22
2023-04-26T11:28:58.842Z,58.62
2023-04-26T11:29:58.858Z,59.11
2023-04-26T11:30:58.776Z,58.60
2023-04-26T11:31:58.877Z,58.80
2023-04-26T11:32:58.773Z,57.96
2023-04-26T11:33:58.676Z,58.06
2023-04-26T11:34:58.646Z,58.87
2023-04-26T11:35:58.715Z,58.54
2023-04-26T11:36:58.595Z,58.54
2023-04-26T11:37:58.541Z,58.34
2023-04-26T11:38:58.516Z,57.93
2023-04-26T11:39:58.496Z,58.41
2023-04-26T11:40:58.644Z,58.01
2023-04-26T11:43:30.006Z,57.39
2023-04-26T11:44:29.944Z,57.39
2023-04-26T11:45:29.914Z,56.48
2023-04-26T11:46:29.928Z,58.01
2023-04-26T11:47:29.901Z,57.09
2023-04-26T11:48:29.841Z,56.20
2023-04-26T11:49:29.788Z,56.27
2023-04-26T11:50:29.778Z,56.58
2023-04-26T11:51:30.640Z,56.68
2023-04-26T11:52:29.706Z,55.76
2023-04-26T11:53:30.173Z,56.35
2023-04-26T11:54:29.628Z,55.71
2023-04-26T11:55:29.615Z,55.51
2023-04-26T11:56:29.571Z,54.46
2023-04-26T11:57:29.536Z,54.08
2023-04-26T11:58:29.510Z,54.18
2023-04-26T11:59:29.530Z,54.59
2023-04-26T12:00:29.466Z,56.22
2023-04-26T12:01:29.440Z,55.63
2023-04-26T12:02:29.453Z,55.94
2023-04-26T12:03:29.503Z,57.19
2023-04-26T12:04:30.145Z,58.54
2023-04-26T12:05:29.392Z,58.34
2023-04-26T12:06:29.262Z,59.59
2023-04-26T12:07:29.240Z,58.78
2023-04-26T12:08:29.206Z,59.39
2023-04-26T12:09:29.159Z,60.30
2023-04-26T12:10:29.138Z,60.41
2023-04-26T12:11:29.179Z,59.80
2023-04-26T12:12:29.071Z,59.80
2023-04-26T12:13:29.044Z,58.87
2023-04-26T12:14:29.057Z,59.28
2023-04-26T12:15:28.981Z,58.57
2023-04-26T12:16:29.040Z,58.64
2023-04-26T12:17:29.140Z,58.11
2023-04-26T12:18:28.885Z,58.41
2023-04-26T12:19:28.856Z,58.92
2023-04-26T12:20:28.824Z,58.11
2023-04-26T12:21:30.729Z,58.51
2023-04-26T12:22:28.796Z,59.51
2023-04-26T12:23:28.723Z,57.17
2023-04-26T12:24:28.689Z,57.60
2023-04-26T12:25:30.502Z,57.90
2023-04-26T12:26:28.634Z,57.39
2023-04-26T12:27:28.651Z,56.35
2023-04-26T12:28:28.581Z,57.54
2023-04-26T12:29:28.553Z,55.81
2023-04-26T12:30:28.523Z,56.09
2023-04-26T12:31:28.545Z,55.61
2023-04-26T12:32:28.466Z,55.99
2023-04-26T12:33:28.518Z,55.61
2023-04-26T12:34:28.388Z,56.02
2023-04-26T12:35:35.004Z,55.81
2023-04-26T12:36:28.336Z,57.04
2023-04-26T12:37:28.302Z,56.15
2023-04-26T12:38:28.284Z,57.80
2023-04-26T12:39:28.374Z,57.01
2023-04-26T12:40:28.202Z,58.23
2023-04-26T12:41:28.171Z,58.87
2023-04-26T12:42:28.157Z,59.82
2023-04-26T12:43:28.113Z,60.10
2023-04-26T12:44:28.082Z,60.64
2023-04-26T12:45:28.099Z,60.51
2023-04-26T12:46:28.075Z,59.52
2023-04-26T12:47:28.036Z,59.89
2023-04-26T12:48:27.949Z,59.80
2023-04-26T12:49:27.923Z,58.06
2023-04-26T12:50:27.884Z,59.28
2023-04-26T12:51:27.919Z,58.64
2023-04-26T12:52:27.829Z,58.11
2023-04-26T12:53:27.836Z,60.02